sensor_id;sensor_type;location;lat;lon;timestamp;temperature;humidity
21815;DHT22;11069;48.988;8.450;2023-02-21T00:01:44;4.50;99.90
21815;DHT22;11069;48.988;8.450;2023-02-21T00:04:29;4.40;99.90
21815;DHT22;11069;48.988;8.450;2023-02-21T00:07:13;4.40;99.90
21815;DHT22;11069;48.988;8.450;2023-02-21T00:09:57;4.40;99.90
21815;DHT22;11069;48.988;8.450;2023-02-21T00:12:41;4.40;99.90
21815;DHT22;11069;48.988;8.450;2023-02-21T00:15:25;4.50;99.90
21815;DHT22;11069;48.988;8.450;2023-02-21T00:18:09;4.40;99.90
21815;DHT22;11069;48.988;8.450;2023-02-21T00:20:53;4.40;99.90
21815;DHT22;11069;48.988;8.450;2023-02-21T00:23:38;4.30;99.90
21815;DHT22;11069;48.988;8.450;2023-02-21T00:26:22;4.30;99.90
21815;DHT22;11069;48.988;8.450;2023-02-21T00:29:06;4.30;99.90
21815;DHT22;11069;48.988;8.450;2023-02-21T00:31:52;4.30;99.90
21815;DHT22;11069;48.988;8.450;2023-02-21T00:34:36;4.30;99.90
21815;DHT22;11069;48.988;8.450;2023-02-21T00:37:21;4.40;99.90
21815;DHT22;11069;48.988;8.450;2023-02-21T00:40:05;4.50;99.90
21815;DHT22;11069;48.988;8.450;2023-02-21T00:42:50;4.60;99.90
21815;DHT22;11069;48.988;8.450;2023-02-21T00:45:33;4.70;99.90
21815;DHT22;11069;48.988;8.450;2023-02-21T00:48:22;4.70;99.90
21815;DHT22;11069;48.988;8.450;2023-02-21T00:51:07;4.80;99.90
21815;DHT22;11069;48.988;8.450;2023-02-21T00:53:51;4.70;99.90
21815;DHT22;11069;48.988;8.450;2023-02-21T00:56:36;4.60;99.90
21815;DHT22;11069;48.988;8.450;2023-02-21T00:59:20;4.70;99.90
21815;DHT22;11069;48.988;8.450;2023-02-21T01:02:04;4.60;99.90
21815;DHT22;11069;48.988;8.450;2023-02-21T01:04:48;4.50;99.90
21815;DHT22;11069;48.988;8.450;2023-02-21T01:10:55;4.70;99.90
21815;DHT22;11069;48.988;8.450;2023-02-21T01:13:39;4.80;99.90
21815;DHT22;11069;48.988;8.450;2023-02-21T01:16:23;4.90;99.90
21815;DHT22;11069;48.988;8.450;2023-02-21T01:19:07;5.00;99.90
21815;DHT22;11069;48.988;8.450;2023-02-21T01:21:51;5.00;99.90
21815;DHT22;11069;48.988;8.450;2023-02-21T01:24:35;5.10;99.90
21815;DHT22;11069;48.988;8.450;2023-02-21T01:27:19;5.10;99.90
21815;DHT22;11069;48.988;8.450;2023-02-21T01:30:04;5.00;99.90
21815;DHT22;11069;48.988;8.450;2023-02-21T01:32:48;4.90;99.90
21815;DHT22;11069;48.988;8.450;2023-02-21T01:35:32;4.90;99.90
21815;DHT22;11069;48.988;8.450;2023-02-21T01:38:25;4.90;99.90
21815;DHT22;11069;48.988;8.450;2023-02-21T01:41:09;5.10;99.90
21815;DHT22;11069;48.988;8.450;2023-02-21T01:44:02;5.20;99.90
21815;DHT22;11069;48.988;8.450;2023-02-21T01:46:47;5.30;99.90
21815;DHT22;11069;48.988;8.450;2023-02-21T01:49:32;5.30;99.90
21815;DHT22;11069;48.988;8.450;2023-02-21T01:52:17;5.50;99.90
21815;DHT22;11069;48.988;8.450;2023-02-21T01:55:02;5.50;99.90
21815;DHT22;11069;48.988;8.450;2023-02-21T01:57:47;5.30;99.90
21815;DHT22;11069;48.988;8.450;2023-02-21T02:00:33;5.20;99.90
21815;DHT22;11069;48.988;8.450;2023-02-21T02:03:18;5.00;99.90
21815;DHT22;11069;48.988;8.450;2023-02-21T02:06:07;4.80;99.90
21815;DHT22;11069;48.988;8.450;2023-02-21T02:08:51;4.80;99.90
21815;DHT22;11069;48.988;8.450;2023-02-21T02:23:25;4.60;99.90
21815;DHT22;11069;48.988;8.450;2023-02-21T02:31:43;4.70;99.90
21815;DHT22;11069;48.988;8.450;2023-02-21T02:39:52;4.40;99.90
21815;DHT22;11069;48.988;8.450;2023-02-21T02:47:44;4.20;99.90
21815;DHT22;11069;48.988;8.450;2023-02-21T02:50:12;4.10;99.90
21815;DHT22;11069;48.988;8.450;2023-02-21T02:52:49;4.00;99.90
21815;DHT22;11069;48.988;8.450;2023-02-21T02:57:56;3.80;99.90
21815;DHT22;11069;48.988;8.450;2023-02-21T03:00:22;3.80;99.90
21815;DHT22;11069;48.988;8.450;2023-02-21T03:08:02;3.80;99.90
21815;DHT22;11069;48.988;8.450;2023-02-21T03:10:51;3.70;99.90
21815;DHT22;11069;48.988;8.450;2023-02-21T03:13:55;3.50;99.90
21815;DHT22;11069;48.988;8.450;2023-02-21T03:16:50;3.40;99.90
21815;DHT22;11069;48.988;8.450;2023-02-21T03:19:24;3.40;99.90
21815;DHT22;11069;48.988;8.450;2023-02-21T03:24:22;3.40;99.90
21815;DHT22;11069;48.988;8.450;2023-02-21T03:26:55;3.30;99.90
21815;DHT22;11069;48.988;8.450;2023-02-21T03:29:22;3.20;99.90
21815;DHT22;11069;48.988;8.450;2023-02-21T03:31:57;3.20;99.90
21815;DHT22;11069;48.988;8.450;2023-02-21T03:34:24;3.10;99.90
21815;DHT22;11069;48.988;8.450;2023-02-21T03:36:50;3.10;99.90
21815;DHT22;11069;48.988;8.450;2023-02-21T03:39:15;3.30;99.90
21815;DHT22;11069;48.988;8.450;2023-02-21T03:41:41;3.20;99.90
21815;DHT22;11069;48.988;8.450;2023-02-21T03:44:07;3.10;99.90
21815;DHT22;11069;48.988;8.450;2023-02-21T03:46:33;3.10;99.90
21815;DHT22;11069;48.988;8.450;2023-02-21T03:49:02;3.10;99.90
21815;DHT22;11069;48.988;8.450;2023-02-21T03:51:27;3.00;99.90
21815;DHT22;11069;48.988;8.450;2023-02-21T03:53:53;3.00;99.90
21815;DHT22;11069;48.988;8.450;2023-02-21T03:56:18;3.00;99.90
21815;DHT22;11069;48.988;8.450;2023-02-21T03:58:44;3.10;99.90
21815;DHT22;11069;48.988;8.450;2023-02-21T04:01:13;3.00;99.90
21815;DHT22;11069;48.988;8.450;2023-02-21T04:03:39;2.90;99.90
21815;DHT22;11069;48.988;8.450;2023-02-21T04:06:05;2.80;99.90
21815;DHT22;11069;48.988;8.450;2023-02-21T04:08:30;2.70;99.90
21815;DHT22;11069;48.988;8.450;2023-02-21T04:10:56;2.80;99.90
21815;DHT22;11069;48.988;8.450;2023-02-21T04:13:21;2.80;99.90
21815;DHT22;11069;48.988;8.450;2023-02-21T04:15:48;2.70;99.90
21815;DHT22;11069;48.988;8.450;2023-02-21T04:18:14;2.70;99.90
21815;DHT22;11069;48.988;8.450;2023-02-21T04:20:42;2.60;99.90
21815;DHT22;11069;48.988;8.450;2023-02-21T04:23:08;2.50;99.90
21815;DHT22;11069;48.988;8.450;2023-02-21T04:25:33;2.50;99.90
21815;DHT22;11069;48.988;8.450;2023-02-21T04:27:59;2.60;99.90
21815;DHT22;11069;48.988;8.450;2023-02-21T04:30:24;2.50;99.90
21815;DHT22;11069;48.988;8.450;2023-02-21T04:32:53;2.50;99.90
21815;DHT22;11069;48.988;8.450;2023-02-21T04:35:21;2.50;99.90
21815;DHT22;11069;48.988;8.450;2023-02-21T04:37:47;2.50;99.90
21815;DHT22;11069;48.988;8.450;2023-02-21T04:40:12;2.40;99.90
21815;DHT22;11069;48.988;8.450;2023-02-21T04:42:38;2.30;99.90
21815;DHT22;11069;48.988;8.450;2023-02-21T04:45:04;2.30;99.90
21815;DHT22;11069;48.988;8.450;2023-02-21T04:47:30;2.10;99.90
21815;DHT22;11069;48.988;8.450;2023-02-21T04:49:55;2.10;99.90
21815;DHT22;11069;48.988;8.450;2023-02-21T04:52:21;2.10;99.90
21815;DHT22;11069;48.988;8.450;2023-02-21T04:54:47;2.20;99.90
21815;DHT22;11069;48.988;8.450;2023-02-21T04:57:13;2.20;99.90
21815;DHT22;11069;48.988;8.450;2023-02-21T04:59:39;2.20;99.90
21815;DHT22;11069;48.988;8.450;2023-02-21T05:02:04;2.30;99.90
21815;DHT22;11069;48.988;8.450;2023-02-21T05:04:31;2.30;99.90
21815;DHT22;11069;48.988;8.450;2023-02-21T05:06:58;2.20;99.90
21815;DHT22;11069;48.988;8.450;2023-02-21T05:09:24;2.10;99.90
21815;DHT22;11069;48.988;8.450;2023-02-21T05:11:49;2.00;99.90
21815;DHT22;11069;48.988;8.450;2023-02-21T05:14:15;2.00;99.90
21815;DHT22;11069;48.988;8.450;2023-02-21T05:16:42;2.00;99.90
21815;DHT22;11069;48.988;8.450;2023-02-21T05:19:09;2.00;99.90
21815;DHT22;11069;48.988;8.450;2023-02-21T05:21:35;2.00;99.90
21815;DHT22;11069;48.988;8.450;2023-02-21T05:24:07;2.00;99.90
21815;DHT22;11069;48.988;8.450;2023-02-21T05:26:35;1.90;99.90
21815;DHT22;11069;48.988;8.450;2023-02-21T05:29:02;2.00;99.90
21815;DHT22;11069;48.988;8.450;2023-02-21T05:31:29;2.00;99.90
21815;DHT22;11069;48.988;8.450;2023-02-21T05:33:55;1.90;99.90
21815;DHT22;11069;48.988;8.450;2023-02-21T05:36:21;1.90;99.90
21815;DHT22;11069;48.988;8.450;2023-02-21T05:38:51;1.90;99.90
21815;DHT22;11069;48.988;8.450;2023-02-21T05:41:17;1.80;99.90
21815;DHT22;11069;48.988;8.450;2023-02-21T05:43:44;1.80;99.90
21815;DHT22;11069;48.988;8.450;2023-02-21T05:46:40;1.80;99.90
21815;DHT22;11069;48.988;8.450;2023-02-21T05:49:05;1.90;99.90
21815;DHT22;11069;48.988;8.450;2023-02-21T05:51:36;2.00;99.90
21815;DHT22;11069;48.988;8.450;2023-02-21T05:54:03;1.80;99.90
21815;DHT22;11069;48.988;8.450;2023-02-21T05:56:28;1.80;99.90
21815;DHT22;11069;48.988;8.450;2023-02-21T05:58:54;1.70;99.90
21815;DHT22;11069;48.988;8.450;2023-02-21T06:01:19;1.80;99.90
21815;DHT22;11069;48.988;8.450;2023-02-21T06:03:45;1.90;99.90
21815;DHT22;11069;48.988;8.450;2023-02-21T06:06:10;2.00;99.90
21815;DHT22;11069;48.988;8.450;2023-02-21T06:08:47;2.10;99.90
21815;DHT22;11069;48.988;8.450;2023-02-21T06:11:14;2.10;99.90
21815;DHT22;11069;48.988;8.450;2023-02-21T06:13:40;2.10;99.90
21815;DHT22;11069;48.988;8.450;2023-02-21T06:16:06;2.10;99.90
21815;DHT22;11069;48.988;8.450;2023-02-21T06:18:31;2.00;99.90
21815;DHT22;11069;48.988;8.450;2023-02-21T06:20:57;2.10;99.90
21815;DHT22;11069;48.988;8.450;2023-02-21T06:23:23;2.10;99.90
21815;DHT22;11069;48.988;8.450;2023-02-21T06:25:48;2.10;99.90
21815;DHT22;11069;48.988;8.450;2023-02-21T06:28:14;2.10;99.90
21815;DHT22;11069;48.988;8.450;2023-02-21T06:30:40;2.20;99.90
21815;DHT22;11069;48.988;8.450;2023-02-21T06:33:05;2.20;99.90
21815;DHT22;11069;48.988;8.450;2023-02-21T06:35:31;2.10;99.90
21815;DHT22;11069;48.988;8.450;2023-02-21T06:37:56;2.10;99.90
21815;DHT22;11069;48.988;8.450;2023-02-21T06:40:22;2.10;99.90
21815;DHT22;11069;48.988;8.450;2023-02-21T06:42:47;2.10;99.90
21815;DHT22;11069;48.988;8.450;2023-02-21T06:45:13;2.00;99.90
21815;DHT22;11069;48.988;8.450;2023-02-21T06:47:38;2.00;99.90
21815;DHT22;11069;48.988;8.450;2023-02-21T06:50:04;2.20;99.90
21815;DHT22;11069;48.988;8.450;2023-02-21T06:52:31;2.30;99.90
21815;DHT22;11069;48.988;8.450;2023-02-21T06:54:56;2.30;99.90
21815;DHT22;11069;48.988;8.450;2023-02-21T06:57:22;2.40;99.90
21815;DHT22;11069;48.988;8.450;2023-02-21T06:59:47;2.50;99.90
21815;DHT22;11069;48.988;8.450;2023-02-21T07:02:17;2.90;99.90
21815;DHT22;11069;48.988;8.450;2023-02-21T07:04:44;3.40;99.90
21815;DHT22;11069;48.988;8.450;2023-02-21T07:07:10;3.70;99.90
21815;DHT22;11069;48.988;8.450;2023-02-21T07:09:36;4.30;99.90
21815;DHT22;11069;48.988;8.450;2023-02-21T07:12:01;5.00;99.90
21815;DHT22;11069;48.988;8.450;2023-02-21T07:14:28;5.80;99.90
21815;DHT22;11069;48.988;8.450;2023-02-21T07:16:54;6.60;99.90
21815;DHT22;11069;48.988;8.450;2023-02-21T07:19:19;7.40;99.90
21815;DHT22;11069;48.988;8.450;2023-02-21T07:21:45;7.90;99.90
21815;DHT22;11069;48.988;8.450;2023-02-21T07:24:11;8.50;99.90
21815;DHT22;11069;48.988;8.450;2023-02-21T07:26:37;9.40;99.90
21815;DHT22;11069;48.988;8.450;2023-02-21T07:29:04;10.00;99.90
21815;DHT22;11069;48.988;8.450;2023-02-21T07:31:30;10.40;99.90
21815;DHT22;11069;48.988;8.450;2023-02-21T07:33:55;10.40;99.90
21815;DHT22;11069;48.988;8.450;2023-02-21T07:36:21;9.90;99.90
21815;DHT22;11069;48.988;8.450;2023-02-21T07:38:47;9.80;99.90
21815;DHT22;11069;48.988;8.450;2023-02-21T07:41:14;9.90;99.90
21815;DHT22;11069;48.988;8.450;2023-02-21T07:43:40;9.80;99.90
21815;DHT22;11069;48.988;8.450;2023-02-21T07:46:13;9.50;99.90
21815;DHT22;11069;48.988;8.450;2023-02-21T07:48:39;9.30;99.90
21815;DHT22;11069;48.988;8.450;2023-02-21T07:51:09;9.00;99.90
21815;DHT22;11069;48.988;8.450;2023-02-21T07:53:35;8.70;99.90
21815;DHT22;11069;48.988;8.450;2023-02-21T07:56:01;8.30;99.90
21815;DHT22;11069;48.988;8.450;2023-02-21T07:58:27;8.10;99.90
21815;DHT22;11069;48.988;8.450;2023-02-21T08:00:53;8.20;99.90
21815;DHT22;11069;48.988;8.450;2023-02-21T08:03:20;8.60;99.90
21815;DHT22;11069;48.988;8.450;2023-02-21T08:05:46;9.10;99.90
21815;DHT22;11069;48.988;8.450;2023-02-21T08:08:13;9.80;99.90
21815;DHT22;11069;48.988;8.450;2023-02-21T08:10:38;10.30;99.90
21815;DHT22;11069;48.988;8.450;2023-02-21T08:13:04;10.20;99.90
21815;DHT22;11069;48.988;8.450;2023-02-21T08:15:30;10.50;99.90
21815;DHT22;11069;48.988;8.450;2023-02-21T08:17:55;10.80;99.90
21815;DHT22;11069;48.988;8.450;2023-02-21T08:20:21;10.30;99.90
21815;DHT22;11069;48.988;8.450;2023-02-21T08:22:47;10.30;99.90
21815;DHT22;11069;48.988;8.450;2023-02-21T08:25:14;10.40;99.90
21815;DHT22;11069;48.988;8.450;2023-02-21T08:27:40;10.30;99.90
21815;DHT22;11069;48.988;8.450;2023-02-21T08:30:11;10.40;99.90
21815;DHT22;11069;48.988;8.450;2023-02-21T08:32:39;10.70;99.90
21815;DHT22;11069;48.988;8.450;2023-02-21T08:35:05;10.60;99.90
21815;DHT22;11069;48.988;8.450;2023-02-21T08:37:31;10.70;99.90
21815;DHT22;11069;48.988;8.450;2023-02-21T08:40:01;10.80;99.90
21815;DHT22;11069;48.988;8.450;2023-02-21T08:42:28;11.30;99.90
21815;DHT22;11069;48.988;8.450;2023-02-21T08:44:54;11.50;99.90
21815;DHT22;11069;48.988;8.450;2023-02-21T08:47:20;11.70;99.90
21815;DHT22;11069;48.988;8.450;2023-02-21T08:49:46;11.40;99.90
21815;DHT22;11069;48.988;8.450;2023-02-21T08:52:17;11.30;99.90
21815;DHT22;11069;48.988;8.450;2023-02-21T08:54:43;11.20;99.90
21815;DHT22;11069;48.988;8.450;2023-02-21T08:57:09;11.50;99.90
21815;DHT22;11069;48.988;8.450;2023-02-21T08:59:42;11.60;99.90
21815;DHT22;11069;48.988;8.450;2023-02-21T09:02:17;11.90;99.90
21815;DHT22;11069;48.988;8.450;2023-02-21T09:04:43;12.30;99.90
21815;DHT22;11069;48.988;8.450;2023-02-21T09:07:11;11.80;99.90
21815;DHT22;11069;48.988;8.450;2023-02-21T09:09:37;12.00;99.90
21815;DHT22;11069;48.988;8.450;2023-02-21T09:12:03;12.20;99.90
21815;DHT22;11069;48.988;8.450;2023-02-21T09:14:36;12.60;99.90
21815;DHT22;11069;48.988;8.450;2023-02-21T09:17:02;12.80;99.90
21815;DHT22;11069;48.988;8.450;2023-02-21T09:19:28;12.40;99.90
21815;DHT22;11069;48.988;8.450;2023-02-21T09:21:53;12.60;99.90
21815;DHT22;11069;48.988;8.450;2023-02-21T09:24:23;12.50;99.90
21815;DHT22;11069;48.988;8.450;2023-02-21T09:26:57;12.70;99.90
21815;DHT22;11069;48.988;8.450;2023-02-21T09:29:24;12.80;99.90
21815;DHT22;11069;48.988;8.450;2023-02-21T09:31:51;13.20;99.90
21815;DHT22;11069;48.988;8.450;2023-02-21T09:34:16;14.00;99.90
21815;DHT22;11069;48.988;8.450;2023-02-21T09:36:43;13.90;99.90
21815;DHT22;11069;48.988;8.450;2023-02-21T09:39:09;13.80;99.90
21815;DHT22;11069;48.988;8.450;2023-02-21T09:41:35;14.20;99.90
21815;DHT22;11069;48.988;8.450;2023-02-21T09:44:03;14.20;99.90
21815;DHT22;11069;48.988;8.450;2023-02-21T09:46:34;13.60;99.90
21815;DHT22;11069;48.988;8.450;2023-02-21T09:49:02;13.80;99.90
21815;DHT22;11069;48.988;8.450;2023-02-21T09:51:30;14.20;99.70
21815;DHT22;11069;48.988;8.450;2023-02-21T09:53:57;14.70;99.10
21815;DHT22;11069;48.988;8.450;2023-02-21T09:56:27;15.10;98.00
21815;DHT22;11069;48.988;8.450;2023-02-21T09:58:53;15.10;98.10
21815;DHT22;11069;48.988;8.450;2023-02-21T10:04:49;14.10;98.20
21815;DHT22;11069;48.988;8.450;2023-02-21T10:10:06;14.10;99.10
21815;DHT22;11069;48.988;8.450;2023-02-21T10:18:02;15.60;96.20
21815;DHT22;11069;48.988;8.450;2023-02-21T10:20:37;16.10;95.70
21815;DHT22;11069;48.988;8.450;2023-02-21T10:23:15;16.30;94.40
21815;DHT22;11069;48.988;8.450;2023-02-21T10:25:44;16.60;94.20
21815;DHT22;11069;48.988;8.450;2023-02-21T10:28:19;16.40;94.10
21815;DHT22;11069;48.988;8.450;2023-02-21T10:30:45;15.50;94.50
21815;DHT22;11069;48.988;8.450;2023-02-21T10:33:11;14.90;95.90
21815;DHT22;11069;48.988;8.450;2023-02-21T10:35:37;14.90;96.40
21815;DHT22;11069;48.988;8.450;2023-02-21T10:38:08;14.60;96.20
21815;DHT22;11069;48.988;8.450;2023-02-21T10:40:41;14.70;96.50
21815;DHT22;11069;48.988;8.450;2023-02-21T10:43:24;14.90;96.30
21815;DHT22;11069;48.988;8.450;2023-02-21T10:48:24;14.70;97.00
21815;DHT22;11069;48.988;8.450;2023-02-21T10:51:15;14.90;96.40
21815;DHT22;11069;48.988;8.450;2023-02-21T10:53:43;15.20;95.50
21815;DHT22;11069;48.988;8.450;2023-02-21T11:01:17;15.40;95.90
21815;DHT22;11069;48.988;8.450;2023-02-21T11:03:59;15.30;95.50
21815;DHT22;11069;48.988;8.450;2023-02-21T11:06:34;15.30;95.80
21815;DHT22;11069;48.988;8.450;2023-02-21T11:09:22;15.80;95.60
21815;DHT22;11069;48.988;8.450;2023-02-21T11:11:48;16.20;94.70
21815;DHT22;11069;48.988;8.450;2023-02-21T11:14:25;16.60;93.60
21815;DHT22;11069;48.988;8.450;2023-02-21T11:17:13;16.50;93.60
21815;DHT22;11069;48.988;8.450;2023-02-21T11:19:47;17.00;92.90
21815;DHT22;11069;48.988;8.450;2023-02-21T11:22:17;16.90;93.10
21815;DHT22;11069;48.988;8.450;2023-02-21T11:24:53;17.10;93.70
21815;DHT22;11069;48.988;8.450;2023-02-21T11:27:20;17.60;92.70
21815;DHT22;11069;48.988;8.450;2023-02-21T11:29:48;17.60;91.40
21815;DHT22;11069;48.988;8.450;2023-02-21T11:32:24;17.40;92.10
21815;DHT22;11069;48.988;8.450;2023-02-21T11:34:50;17.60;91.20
21815;DHT22;11069;48.988;8.450;2023-02-21T11:37:26;17.60;90.80
21815;DHT22;11069;48.988;8.450;2023-02-21T11:39:53;17.60;90.60
21815;DHT22;11069;48.988;8.450;2023-02-21T11:42:29;18.20;90.60
21815;DHT22;11069;48.988;8.450;2023-02-21T11:47:44;17.40;90.90
21815;DHT22;11069;48.988;8.450;2023-02-21T11:55:29;17.20;90.90
21815;DHT22;11069;48.988;8.450;2023-02-21T12:00:34;17.70;90.20
21815;DHT22;11069;48.988;8.450;2023-02-21T12:03:05;17.70;87.60
21815;DHT22;11069;48.988;8.450;2023-02-21T12:11:27;18.50;85.80
21815;DHT22;11069;48.988;8.450;2023-02-21T12:14:06;18.40;85.90
21815;DHT22;11069;48.988;8.450;2023-02-21T12:16:55;18.60;86.50
21815;DHT22;11069;48.988;8.450;2023-02-21T12:19:49;19.20;83.80
21815;DHT22;11069;48.988;8.450;2023-02-21T12:22:39;19.60;84.70
21815;DHT22;11069;48.988;8.450;2023-02-21T12:25:25;20.70;80.60
21815;DHT22;11069;48.988;8.450;2023-02-21T12:27:58;20.30;80.00
21815;DHT22;11069;48.988;8.450;2023-02-21T12:33:40;20.00;81.10
21815;DHT22;11069;48.988;8.450;2023-02-21T12:47:00;20.70;78.20
21815;DHT22;11069;48.988;8.450;2023-02-21T12:50:02;21.30;73.00
21815;DHT22;11069;48.988;8.450;2023-02-21T12:52:46;21.80;73.30
21815;DHT22;11069;48.988;8.450;2023-02-21T12:55:25;20.70;72.90
21815;DHT22;11069;48.988;8.450;2023-02-21T12:57:59;21.00;73.90
21815;DHT22;11069;48.988;8.450;2023-02-21T13:00:42;21.80;72.30
21815;DHT22;11069;48.988;8.450;2023-02-21T13:03:35;21.30;70.90
21815;DHT22;11069;48.988;8.450;2023-02-21T13:06:25;22.00;68.20
21815;DHT22;11069;48.988;8.450;2023-02-21T13:12:07;21.70;69.20
21815;DHT22;11069;48.988;8.450;2023-02-21T13:14:42;20.40;68.10
21815;DHT22;11069;48.988;8.450;2023-02-21T13:17:13;20.50;68.80
21815;DHT22;11069;48.988;8.450;2023-02-21T13:19:47;21.40;69.40
21815;DHT22;11069;48.988;8.450;2023-02-21T13:28:22;21.30;68.80
21815;DHT22;11069;48.988;8.450;2023-02-21T13:30:56;21.60;66.50
21815;DHT22;11069;48.988;8.450;2023-02-21T13:33:43;22.60;66.80
21815;DHT22;11069;48.988;8.450;2023-02-21T13:39:12;22.00;65.10
21815;DHT22;11069;48.988;8.450;2023-02-21T13:41:52;21.50;64.80
21815;DHT22;11069;48.988;8.450;2023-02-21T13:52:36;21.00;67.50
21815;DHT22;11069;48.988;8.450;2023-02-21T14:08:31;20.20;71.20
21815;DHT22;11069;48.988;8.450;2023-02-21T14:13:38;21.30;66.50
21815;DHT22;11069;48.988;8.450;2023-02-21T14:16:18;22.00;64.40
21815;DHT22;11069;48.988;8.450;2023-02-21T14:18:54;20.50;66.70
21815;DHT22;11069;48.988;8.450;2023-02-21T14:21:26;20.10;68.30
21815;DHT22;11069;48.988;8.450;2023-02-21T14:29:27;20.00;69.70
21815;DHT22;11069;48.988;8.450;2023-02-21T14:39:40;19.90;68.20
21815;DHT22;11069;48.988;8.450;2023-02-21T14:55:43;20.30;67.60
21815;DHT22;11069;48.988;8.450;2023-02-21T15:04:01;20.70;68.10
21815;DHT22;11069;48.988;8.450;2023-02-21T15:06:30;21.20;69.30
21815;DHT22;11069;48.988;8.450;2023-02-21T15:08:57;21.00;67.00
21815;DHT22;11069;48.988;8.450;2023-02-21T15:11:36;20.10;66.50
21815;DHT22;11069;48.988;8.450;2023-02-21T15:14:19;20.30;68.10
21815;DHT22;11069;48.988;8.450;2023-02-21T15:17:08;20.80;66.40
21815;DHT22;11069;48.988;8.450;2023-02-21T15:19:35;20.60;65.20
21815;DHT22;11069;48.988;8.450;2023-02-21T15:22:20;19.30;65.30
21815;DHT22;11069;48.988;8.450;2023-02-21T15:27:54;19.40;67.00
21815;DHT22;11069;48.988;8.450;2023-02-21T15:30:27;19.10;67.20
21815;DHT22;11069;48.988;8.450;2023-02-21T15:35:50;18.60;67.90
21815;DHT22;11069;48.988;8.450;2023-02-21T15:40:49;17.60;72.90
21815;DHT22;11069;48.988;8.450;2023-02-21T15:43:34;17.10;75.70
21815;DHT22;11069;48.988;8.450;2023-02-21T15:46:04;17.00;76.10
21815;DHT22;11069;48.988;8.450;2023-02-21T15:48:31;17.00;76.10
21815;DHT22;11069;48.988;8.450;2023-02-21T15:51:01;17.10;74.20
21815;DHT22;11069;48.988;8.450;2023-02-21T15:53:28;17.10;74.00
21815;DHT22;11069;48.988;8.450;2023-02-21T15:55:53;17.20;74.90
21815;DHT22;11069;48.988;8.450;2023-02-21T15:58:39;17.10;73.80
21815;DHT22;11069;48.988;8.450;2023-02-21T16:01:09;17.10;74.80
21815;DHT22;11069;48.988;8.450;2023-02-21T16:03:39;17.00;74.60
21815;DHT22;11069;48.988;8.450;2023-02-21T16:06:21;16.90;75.80
21815;DHT22;11069;48.988;8.450;2023-02-21T16:14:41;16.70;74.20
21815;DHT22;11069;48.988;8.450;2023-02-21T16:17:26;16.60;75.60
21815;DHT22;11069;48.988;8.450;2023-02-21T16:22:37;16.30;79.90
21815;DHT22;11069;48.988;8.450;2023-02-21T16:25:23;16.10;81.90
21815;DHT22;11069;48.988;8.450;2023-02-21T16:27:55;15.80;83.30
21815;DHT22;11069;48.988;8.450;2023-02-21T16:30:27;15.70;85.80
21815;DHT22;11069;48.988;8.450;2023-02-21T16:32:58;15.40;86.00
21815;DHT22;11069;48.988;8.450;2023-02-21T16:35:25;15.10;84.90
21815;DHT22;11069;48.988;8.450;2023-02-21T16:37:56;14.70;85.40
21815;DHT22;11069;48.988;8.450;2023-02-21T16:40:30;14.50;89.60
21815;DHT22;11069;48.988;8.450;2023-02-21T16:42:58;14.20;90.30
21815;DHT22;11069;48.988;8.450;2023-02-21T16:45:25;14.00;91.20
21815;DHT22;11069;48.988;8.450;2023-02-21T16:47:56;13.70;91.80
21815;DHT22;11069;48.988;8.450;2023-02-21T16:50:33;13.50;92.10
21815;DHT22;11069;48.988;8.450;2023-02-21T16:53:00;13.40;92.60
21815;DHT22;11069;48.988;8.450;2023-02-21T16:55:26;13.20;92.90
21815;DHT22;11069;48.988;8.450;2023-02-21T16:57:55;13.10;94.00
21815;DHT22;11069;48.988;8.450;2023-02-21T17:00:21;13.00;94.70
21815;DHT22;11069;48.988;8.450;2023-02-21T17:02:51;12.90;95.30
21815;DHT22;11069;48.988;8.450;2023-02-21T17:05:18;12.80;95.80
21815;DHT22;11069;48.988;8.450;2023-02-21T17:07:48;12.60;96.30
21815;DHT22;11069;48.988;8.450;2023-02-21T17:10:16;12.40;96.50
21815;DHT22;11069;48.988;8.450;2023-02-21T17:12:42;12.10;97.00
21815;DHT22;11069;48.988;8.450;2023-02-21T17:15:07;11.90;97.30
21815;DHT22;11069;48.988;8.450;2023-02-21T17:17:35;11.70;98.00
21815;DHT22;11069;48.988;8.450;2023-02-21T17:20:01;11.60;97.90
21815;DHT22;11069;48.988;8.450;2023-02-21T17:22:26;11.50;98.50
21815;DHT22;11069;48.988;8.450;2023-02-21T17:24:52;11.40;98.20
21815;DHT22;11069;48.988;8.450;2023-02-21T17:27:18;11.30;98.70
21815;DHT22;11069;48.988;8.450;2023-02-21T17:29:46;11.10;98.80
21815;DHT22;11069;48.988;8.450;2023-02-21T17:32:11;11.10;99.00
21815;DHT22;11069;48.988;8.450;2023-02-21T17:34:37;11.00;99.90
21815;DHT22;11069;48.988;8.450;2023-02-21T17:37:03;10.80;99.90
21815;DHT22;11069;48.988;8.450;2023-02-21T17:39:29;10.70;99.90
21815;DHT22;11069;48.988;8.450;2023-02-21T17:41:54;10.60;99.90
21815;DHT22;11069;48.988;8.450;2023-02-21T17:44:21;10.60;99.90
21815;DHT22;11069;48.988;8.450;2023-02-21T17:46:50;10.40;99.90
21815;DHT22;11069;48.988;8.450;2023-02-21T17:49:20;10.30;99.90
21815;DHT22;11069;48.988;8.450;2023-02-21T17:51:47;10.20;99.90
21815;DHT22;11069;48.988;8.450;2023-02-21T17:54:14;10.00;99.90
21815;DHT22;11069;48.988;8.450;2023-02-21T17:56:40;9.90;99.90
21815;DHT22;11069;48.988;8.450;2023-02-21T17:59:06;9.70;99.90
21815;DHT22;11069;48.988;8.450;2023-02-21T18:01:31;9.70;99.90
21815;DHT22;11069;48.988;8.450;2023-02-21T18:03:57;9.60;99.90
21815;DHT22;11069;48.988;8.450;2023-02-21T18:06:26;9.50;99.90
21815;DHT22;11069;48.988;8.450;2023-02-21T18:08:52;9.30;99.90
21815;DHT22;11069;48.988;8.450;2023-02-21T18:11:19;9.20;99.90
21815;DHT22;11069;48.988;8.450;2023-02-21T18:13:45;9.10;99.90
21815;DHT22;11069;48.988;8.450;2023-02-21T18:16:10;9.10;99.90
21815;DHT22;11069;48.988;8.450;2023-02-21T18:18:36;9.10;99.90
21815;DHT22;11069;48.988;8.450;2023-02-21T18:21:02;8.90;99.90
21815;DHT22;11069;48.988;8.450;2023-02-21T18:23:29;8.90;99.90
21815;DHT22;11069;48.988;8.450;2023-02-21T18:25:54;8.70;99.90
21815;DHT22;11069;48.988;8.450;2023-02-21T18:28:20;8.60;99.90
21815;DHT22;11069;48.988;8.450;2023-02-21T18:30:46;8.50;99.90
21815;DHT22;11069;48.988;8.450;2023-02-21T18:33:13;8.50;99.90
21815;DHT22;11069;48.988;8.450;2023-02-21T18:35:38;8.40;99.90
21815;DHT22;11069;48.988;8.450;2023-02-21T18:38:04;8.40;99.90
21815;DHT22;11069;48.988;8.450;2023-02-21T18:40:29;8.40;99.90
21815;DHT22;11069;48.988;8.450;2023-02-21T18:43:19;8.60;99.90
21815;DHT22;11069;48.988;8.450;2023-02-21T18:45:47;8.70;99.90
21815;DHT22;11069;48.988;8.450;2023-02-21T18:48:13;8.70;99.90
21815;DHT22;11069;48.988;8.450;2023-02-21T18:50:39;8.70;99.90
21815;DHT22;11069;48.988;8.450;2023-02-21T18:53:05;8.70;99.90
21815;DHT22;11069;48.988;8.450;2023-02-21T18:55:31;8.60;99.90
21815;DHT22;11069;48.988;8.450;2023-02-21T18:57:57;8.40;99.90
21815;DHT22;11069;48.988;8.450;2023-02-21T19:00:24;8.30;99.90
21815;DHT22;11069;48.988;8.450;2023-02-21T19:02:49;8.30;99.90
21815;DHT22;11069;48.988;8.450;2023-02-21T19:05:18;8.30;99.90